Morning Shadows Ranch, CO

6:49 AM MDT on October 23, 2014 (GMT -0600)
San Luis Valley Regional / Bergman Field | Change Station
CLOSE
Current Station
Airport
Location: Alamosa,
Elevation: 7543 ft
Nearby Weather Stations

Elev 7543 ft 37.44 °N, 105.86 °W | Updated 57 minutes ago

Clear
Clear
27 °F
Feels Like 27 °F
N
0
Wind Variable Wind from North

Today
High -- | Low -- °F
--% Chance of Precip.
Yesterday
High -- | Low -- °F
Precip. -- in
7:22 AM 6:17 PM
Waning Crescent, 0% visible
Pressure 30.23 in
Visibility 10.0 miles
Clouds Clear
Dew Point 24 °F
Humidity 89%
Rainfall 0.00 in
Snow Depth 0 in
UV 0 out of 12
Pollen 2.10 out of 12
Air Quality Not available.
Flu Activity Sporadic
METAR KALS 231152Z AUTO 00000KT 10SM CLR M03/M04 A3031 RMK AO2 SLP236 T10281044 10056 21028 53005

More Conditions Fewer Conditions

Pressure 30.23 in
Visibility 10.0 miles
Clouds Clear
Dew Point 24 °F
Humidity 89%
Rainfall 0.00 in
Snow Depth 0 in
UV 0 out of 12
Pollen 2.10 out of 12
Air Quality Not available.
Flu Activity Sporadic
METAR KALS 231152Z AUTO 00000KT 10SM CLR M03/M04 A3031 RMK AO2 SLP236 T10281044 10056 21028 53005

More Conditions Fewer Conditions

10-Day Weather Forecast

Almanac

Astronomy

Oct. 23, 2014 Rise Set
Actual Time 7:22 AM MDT 6:17 PM MDT
Civil Twilight 6:55 AM MDT 6:44 PM MDT
Nautical Twilight 6:24 AM MDT 7:15 PM MDT
Astronomical Twilight 5:54 AM MDT 7:45 PM MDT
Moon 7:05 AM MDT 6:21 PM MDT
Length of Visible Light 11h 49m
Length of Day
10h 55m
Tomorrow will be 2m 15s shorter.
Waning Crescent, 0% of the Moon is Illuminated
Today
Waning Crescent
Oct 23
New
Oct 30
First Quarter
Nov 6
Full
Nov 14
Last Quarter

Today's Extremes

State Highs State Lows

Community

WunderPhotos

Upload Photos

1,764,214 photos uploaded!

Nearby

Snow Depth

Station Depth Elevation
Grayback 0 in 11620 ft
Wolf Creek Summit 1 in 11000 ft
Upper San Juan 0 in 10130 ft
Lily Pond 1 in 11000 ft
Middle Creek 0 in 11250 ft

Earthquake Activity

City Distance Mag. Time & Date
Trinidad, Colorado 97 miles 2.7 10:33 PM MDT
2014-10-20
Minimum magnitude displayed is 2.5.

Coastal Water Temperatures

Place Temperature
No Stations Reporting

Nearby Weather Stations